Time;durP1;ratioP1;P1;durP2;ratioP2;P2;SDS_P1;SDS_P2;PMS_P1;PMS_P2;Temp;Humidity;BMP_temperature;BMP_pressure;BME280_temperature;BME280_humidity;BME280_pressure;Samples;Min_cycle;Max_cycle;Signal;HPM_P1;HPM_P2
2021/12/30 00:00:02;;;;;;;;;;;;;;;12.91;75.44;100714.44;5141953;27;26774;-80
2021/12/30 00:02:29;;;;;;;;;;;;;;;12.88;75.78;100714.56;5140297;27;26976;-80
2021/12/30 00:04:54;;;;;;;;;;;;;;;12.85;75.45;100722.44;5142120;27;26808;-79
2021/12/30 00:07:20;;;;;;;;;;;;;;;12.81;75.84;100728.66;5141314;27;26818;-79
2021/12/30 00:09:45;;;;;;;;;;;;;;;12.79;75.05;100735.59;5139773;27;26805;-80
2021/12/30 00:12:10;;;;;;;;;;;;;;;12.73;75.37;100733.25;5139263;27;27194;-80
2021/12/30 00:14:35;;;;;;;;;;;;;;;12.69;75.86;100726.47;5140259;27;26981;-80
2021/12/30 00:17:00;;;;;;;;;;;;;;;12.63;75.39;100730.13;5139615;27;27088;-80
2021/12/30 00:19:26;;;;;;;;;;;;;;;12.60;75.91;100736.25;5139461;27;26752;-80
2021/12/30 00:21:51;;;;;;;;;;;;;;;12.57;76.06;100741.53;5138773;27;35708;-79
2021/12/30 00:24:16;;;;;;;;;;;;;;;12.54;75.89;100726.13;5139688;27;26823;-80
2021/12/30 00:26:42;;;;;;;;;;;;;;;12.56;75.65;100721.72;5141347;27;26786;-79
2021/12/30 00:29:07;;;;;;;;;;;;;;;12.56;75.11;100723.44;5141069;27;26924;-80
2021/12/30 00:31:32;;;;;;;;;;;;;;;12.57;75.60;100740.69;5139682;27;26871;-80
2021/12/30 00:33:57;;;;;;;;;;;;;;;12.56;75.76;100745.03;5138860;27;54168;-79
2021/12/30 00:36:22;;;;;;;;;;;;;;;12.57;75.85;100746.72;5143002;27;56228;-79
2021/12/30 00:38:48;;;;;;;;;;;;;;;12.56;75.78;100757.97;5146017;27;26576;-80
2021/12/30 00:41:14;;;;;;;;;;;;;;;12.58;76.03;100753.63;5138453;27;26951;-80
2021/12/30 00:43:39;;;;;;;;;;;;;;;12.58;76.08;100753.63;5138500;27;26711;-79
2021/12/30 00:46:05;;;;;;;;;;;;;;;12.57;76.15;100751.91;5142122;27;26888;-79
2021/12/30 00:48:30;;;;;;;;;;;;;;;12.58;75.77;100758.78;5142537;27;27021;-79
2021/12/30 00:50:55;;;;;;;;;;;;;;;12.56;75.81;100760.56;5141366;27;26949;-79
2021/12/30 00:53:20;;;;;;;;;;;;;;;12.52;75.91;100769.34;5143757;27;28318;-79
2021/12/30 00:55:45;;;;;;;;;;;;;;;12.50;75.99;100784.09;5139585;27;53253;-79
2021/12/30 00:58:12;;;;;;;;;;;;;;;12.47;75.41;100780.78;5140002;27;50494;-79
2021/12/30 01:00:39;;;;;;;;;;;;;;;12.42;75.13;100778.31;5138959;27;27069;-80
2021/12/30 01:03:05;;;;;;;;;;;;;;;12.36;74.94;100778.53;5138744;27;26954;-79
2021/12/30 01:05:30;;;;;;;;;;;;;;;12.31;74.90;100784.75;5143542;27;26900;-79
2021/12/30 01:07:56;;;;;;;;;;;;;;;12.22;74.92;100788.50;5144598;27;26732;-79
2021/12/30 01:10:23;;;;;;;;;;;;;;;12.16;75.02;100793.84;5140472;27;26915;-79
2021/12/30 01:12:48;;;;;;;;;;;;;;;12.10;75.11;100801.84;5138653;27;26806;-80
2021/12/30 01:15:17;;;;;;;;;;;;;;;12.07;74.56;100807.09;5140306;27;27020;-79
2021/12/30 01:17:54;;;;;;;;;;;;;;;12.01;74.63;100825.41;5141157;27;26923;-79
2021/12/30 01:20:20;;;;;;;;;;;;;;;11.97;75.10;100828.97;5140141;27;27097;-79
2021/12/30 01:22:47;;;;;;;;;;;;;;;11.92;75.37;100843.81;5143580;27;26865;-79
2021/12/30 01:25:12;;;;;;;;;;;;;;;11.88;76.43;100845.66;5144909;27;27046;-79
2021/12/30 01:27:40;;;;;;;;;;;;;;;11.89;76.40;100836.13;5145375;27;26799;-79
2021/12/30 01:30:06;;;;;;;;;;;;;;;11.90;76.17;100830.06;5147792;27;26952;-79
2021/12/30 01:32:31;;;;;;;;;;;;;;;11.93;76.32;100840.31;5147847;27;26748;-79
2021/12/30 01:34:56;;;;;;;;;;;;;;;11.95;75.97;100834.22;5145203;27;33799;-79
2021/12/30 01:37:23;;;;;;;;;;;;;;;12.00;75.96;100823.69;5144888;27;26889;-79
2021/12/30 01:39:48;;;;;;;;;;;;;;;12.04;76.18;100825.31;5143917;27;27356;-80
2021/12/30 01:42:14;;;;;;;;;;;;;;;12.10;76.60;100832.91;5143334;27;26972;-80
2021/12/30 01:44:40;;;;;;;;;;;;;;;12.13;75.95;100832.78;5142805;27;26756;-80
2021/12/30 01:47:06;;;;;;;;;;;;;;;12.18;76.45;100825.75;5142335;27;26771;-80
2021/12/30 01:49:32;;;;;;;;;;;;;;;12.23;76.50;100841.97;5142066;27;26960;-81
2021/12/30 01:51:57;;;;;;;;;;;;;;;12.30;76.64;100846.06;5141821;27;26873;-80
2021/12/30 01:54:23;;;;;;;;;;;;;;;12.36;76.64;100843.28;5146352;27;27005;-79
2021/12/30 01:56:50;;;;;;;;;;;;;;;12.41;77.25;100846.56;5146906;27;26759;-79
2021/12/30 01:59:16;;;;;;;;;;;;;;;12.47;76.88;100842.94;5145415;27;27614;-80
2021/12/30 02:01:41;;;;;;;;;;;;;;;12.51;77.39;100845.41;5141181;27;26963;-80
2021/12/30 02:04:06;;;;;;;;;;;;;;;12.57;76.72;100850.38;5141185;27;49478;-80
2021/12/30 02:06:31;;;;;;;;;;;;;;;12.64;77.05;100847.56;5140790;27;44676;-80
2021/12/30 02:08:56;;;;;;;;;;;;;;;12.70;76.32;100839.59;5141595;27;27772;-79
2021/12/30 02:11:22;;;;;;;;;;;;;;;12.75;76.50;100837.69;5144686;27;26933;-79
2021/12/30 02:13:49;;;;;;;;;;;;;;;12.77;76.90;100841.09;5144856;27;26821;-80
2021/12/30 02:16:16;;;;;;;;;;;;;;;12.82;76.49;100854.75;5141311;27;26909;-80
2021/12/30 02:18:42;;;;;;;;;;;;;;;12.85;76.51;100862.44;5142141;27;26960;-79
2021/12/30 02:21:07;;;;;;;;;;;;;;;12.88;76.29;100864.91;5145730;27;40838;-79
2021/12/30 02:23:33;;;;;;;;;;;;;;;12.94;76.37;100875.06;5144547;27;42745;-79
2021/12/30 02:26:00;;;;;;;;;;;;;;;12.96;76.41;100879.31;5144058;27;26896;-78
2021/12/30 02:28:27;;;;;;;;;;;;;;;13.00;75.92;100874.88;5144273;27;26967;-78
2021/12/30 02:30:53;;;;;;;;;;;;;;;13.03;76.29;100869.59;5141839;27;27039;-79
2021/12/30 02:33:19;;;;;;;;;;;;;;;13.07;76.01;100863.41;5141142;27;26905;-81
2021/12/30 02:35:44;;;;;;;;;;;;;;;13.09;76.33;100871.97;5142686;27;26914;-78
2021/12/30 02:38:10;;;;;;;;;;;;;;;13.12;76.03;100858.94;5143643;27;26822;-78
2021/12/30 02:40:38;;;;;;;;;;;;;;;13.15;76.00;100864.03;5142606;27;26591;-81
2021/12/30 02:43:05;;;;;;;;;;;;;;;13.18;76.26;100871.69;5141675;27;26945;-81
2021/12/30 02:45:30;;;;;;;;;;;;;;;13.21;76.39;100884.53;5141987;27;26957;-81
2021/12/30 02:47:55;;;;;;;;;;;;;;;13.25;76.29;100893.91;5140649;27;50870;-81
2021/12/30 02:50:20;;;;;;;;;;;;;;;13.27;76.08;100899.88;5141255;27;37941;-80
2021/12/30 02:52:46;;;;;;;;;;;;;;;13.30;76.44;100905.00;5140252;27;46021;-81
2021/12/30 02:55:11;;;;;;;;;;;;;;;13.33;76.15;100894.50;5141604;27;53973;-80
2021/12/30 02:57:36;;;;;;;;;;;;;;;13.37;75.95;100880.53;5144091;27;26976;-80
2021/12/30 03:00:03;;;;;;;;;;;;;;;13.42;75.86;100888.97;5141254;27;40823;-81
2021/12/30 03:02:28;;;;;;;;;;;;;;;13.45;76.06;100888.88;5140519;27;26815;-81
2021/12/30 03:04:53;;;;;;;;;;;;;;;13.48;76.29;100899.16;5144719;27;26891;-79
2021/12/30 03:07:18;;;;;;;;;;;;;;;13.51;75.99;100893.84;5148787;27;28294;-79
2021/12/30 03:09:44;;;;;;;;;;;;;;;13.53;76.45;100896.41;5146359;27;26862;-79
2021/12/30 03:12:10;;;;;;;;;;;;;;;13.54;76.15;100898.94;5142056;27;26752;-79
2021/12/30 03:14:41;;;;;;;;;;;;;;;13.57;76.42;100904.00;5141392;27;26736;-79
2021/12/30 03:17:07;;;;;;;;;;;;;;;13.61;76.61;100896.94;5139746;27;26972;-79
2021/12/30 03:19:32;;;;;;;;;;;;;;;13.64;75.96;100893.41;5140187;27;26846;-80
2021/12/30 03:21:59;;;;;;;;;;;;;;;13.65;75.99;100902.88;5140605;27;27021;-79
2021/12/30 03:24:24;;;;;;;;;;;;;;;13.68;76.21;100913.19;5141177;27;26973;-80
2021/12/30 03:26:49;;;;;;;;;;;;;;;13.70;76.43;100913.94;5141005;27;27050;-80
2021/12/30 03:29:14;;;;;;;;;;;;;;;13.72;76.48;100912.16;5141981;27;27002;-80
2021/12/30 03:31:39;;;;;;;;;;;;;;;13.74;76.29;100899.97;5140971;27;27195;-80
2021/12/30 03:34:05;;;;;;;;;;;;;;;13.73;76.07;100908.66;5144164;27;55063;-79
2021/12/30 03:36:31;;;;;;;;;;;;;;;13.76;76.22;100893.81;5148105;27;26749;-79
2021/12/30 03:38:57;;;;;;;;;;;;;;;13.80;75.93;100891.94;5146349;27;26739;-80
2021/12/30 03:41:23;;;;;;;;;;;;;;;13.82;76.25;100897.94;5140211;27;27057;-80
2021/12/30 03:43:49;;;;;;;;;;;;;;;13.83;76.24;100891.84;5139624;27;26908;-79
2021/12/30 03:46:14;;;;;;;;;;;;;;;13.85;76.30;100892.63;5141703;27;27463;-79
2021/12/30 03:48:43;;;;;;;;;;;;;;;13.87;76.09;100901.22;5141503;27;26970;-80
2021/12/30 03:51:13;;;;;;;;;;;;;;;13.88;76.04;100908.09;5139768;27;27035;-80
2021/12/30 03:53:39;;;;;;;;;;;;;;;13.89;76.19;100914.97;5140201;27;26737;-79
2021/12/30 03:56:09;;;;;;;;;;;;;;;13.90;76.12;100914.94;5146733;27;27049;-80
2021/12/30 03:58:34;;;;;;;;;;;;;;;13.90;76.33;100921.88;5146187;27;26977;-79
2021/12/30 04:01:00;;;;;;;;;;;;;;;13.92;76.16;100925.25;5146357;27;26585;-79
2021/12/30 04:03:25;;;;;;;;;;;;;;;13.92;75.76;100914.84;5145652;27;26888;-79
2021/12/30 04:05:50;;;;;;;;;;;;;;;13.91;76.13;100910.56;5138054;27;54645;-80
2021/12/30 04:08:15;;;;;;;;;;;;;;;13.92;75.93;100909.66;5138192;27;45848;-80
2021/12/30 04:10:41;;;;;;;;;;;;;;;13.92;75.79;100905.31;5138763;27;56238;-80
2021/12/30 04:13:06;;;;;;;;;;;;;;;13.94;76.28;100905.28;5139971;27;26958;-79
2021/12/30 04:15:31;;;;;;;;;;;;;;;13.96;76.05;100896.53;5139444;27;26581;-80
2021/12/30 04:17:56;;;;;;;;;;;;;;;13.96;76.03;100890.47;5139652;27;26816;-80
2021/12/30 04:20:21;;;;;;;;;;;;;;;13.95;76.26;100883.56;5143424;27;52792;-80
2021/12/30 04:22:47;;;;;;;;;;;;;;;13.96;76.07;100885.28;5143771;27;30940;-79
2021/12/30 04:25:13;;;;;;;;;;;;;;;13.96;75.75;100887.88;5139286;27;38165;-80
2021/12/30 04:27:39;;;;;;;;;;;;;;;13.98;75.74;100893.88;5139085;27;26860;-80
2021/12/30 04:30:06;;;;;;;;;;;;;;;13.98;76.08;100888.69;5139059;27;26809;-80
2021/12/30 04:32:31;;;;;;;;;;;;;;;13.99;75.92;100879.97;5139417;27;26979;-80
2021/12/30 04:34:56;;;;;;;;;;;;;;;13.99;75.76;100875.63;5139305;27;26930;-80
2021/12/30 04:37:21;;;;;;;;;;;;;;;14.01;76.21;100878.19;5139516;27;26947;-80
2021/12/30 04:39:46;;;;;;;;;;;;;;;14.03;75.60;100894.53;5138284;27;56092;-80
2021/12/30 04:42:12;;;;;;;;;;;;;;;14.06;75.91;100906.56;5137644;27;54378;-80
2021/12/30 04:44:38;;;;;;;;;;;;;;;14.07;75.88;100903.06;5140248;27;27842;-79
2021/12/30 04:47:03;;;;;;;;;;;;;;;14.09;75.83;100904.72;5142037;27;26840;-79
2021/12/30 04:49:28;;;;;;;;;;;;;;;14.06;75.51;100912.59;5141523;27;26739;-80
2021/12/30 04:51:54;;;;;;;;;;;;;;;14.07;75.81;100914.28;5139329;27;26796;-80
2021/12/30 04:54:19;;;;;;;;;;;;;;;14.07;75.66;100919.50;5139194;27;26835;-80
2021/12/30 04:56:45;;;;;;;;;;;;;;;14.06;75.87;100915.19;5137626;27;54138;-80
2021/12/30 04:59:10;;;;;;;;;;;;;;;14.06;75.87;100912.59;5139655;27;26904;-79
2021/12/30 05:01:35;;;;;;;;;;;;;;;14.06;75.96;100907.41;5141986;27;26749;-79
2021/12/30 05:04:00;;;;;;;;;;;;;;;14.07;76.03;100903.06;5141972;27;26892;-79
2021/12/30 05:06:26;;;;;;;;;;;;;;;14.09;75.90;100896.91;5144099;27;33710;-79
2021/12/30 05:08:51;;;;;;;;;;;;;;;14.10;76.13;100893.38;5142821;27;32240;-80
2021/12/30 05:11:16;;;;;;;;;;;;;;;14.10;75.96;100893.38;5139315;27;26818;-80
2021/12/30 05:13:42;;;;;;;;;;;;;;;14.11;75.60;100900.28;5140623;27;26782;-79
2021/12/30 05:16:07;;;;;;;;;;;;;;;14.12;75.82;100896.78;5143246;27;33618;-79
2021/12/30 05:18:33;;;;;;;;;;;;;;;14.11;75.59;100895.09;5143377;27;39790;-80
2021/12/30 05:21:00;;;;;;;;;;;;;;;14.10;75.67;100883.00;5139367;27;26707;-81
2021/12/30 05:23:25;;;;;;;;;;;;;;;14.09;75.90;100886.53;5139052;27;28502;-80
2021/12/30 05:25:51;;;;;;;;;;;;;;;14.10;76.07;100884.78;5143706;27;26810;-81
2021/12/30 05:28:16;;;;;;;;;;;;;;;14.11;75.97;100895.09;5140281;27;26862;-80
2021/12/30 05:30:41;;;;;;;;;;;;;;;14.12;76.04;100899.38;5140911;27;26795;-79
2021/12/30 05:33:06;;;;;;;;;;;;;;;14.13;76.07;100903.69;5140387;27;27686;-81
2021/12/30 05:35:32;;;;;;;;;;;;;;;14.14;76.20;100905.38;5145694;27;46093;-80
2021/12/30 05:37:59;;;;;;;;;;;;;;;14.14;76.17;100905.38;5145296;27;31425;-79
2021/12/30 05:40:24;;;;;;;;;;;;;;;14.15;76.22;100904.47;5144430;27;26361;-80
2021/12/30 05:42:49;;;;;;;;;;;;;;;14.15;76.53;100907.06;5143655;27;27951;-79
2021/12/30 05:45:15;;;;;;;;;;;;;;;14.04;76.38;100889.28;5139632;27;27006;-80
2021/12/30 05:47:41;;;;;;;;;;;;;;;14.17;76.16;100904.41;5139975;27;28013;-80
2021/12/30 05:50:08;;;;;;;;;;;;;;;14.17;76.19;100910.44;5140232;27;26668;-80
2021/12/30 05:52:33;;;;;;;;;;;;;;;14.17;76.36;100913.03;5138020;27;28325;-80
2021/12/30 05:54:58;;;;;;;;;;;;;;;14.19;76.58;100916.44;5140740;27;26797;-79
2021/12/30 05:57:23;;;;;;;;;;;;;;;14.23;76.37;100920.63;5142939;27;28732;-79
2021/12/30 05:59:49;;;;;;;;;;;;;;;14.23;76.22;100915.41;5140726;27;54115;-82
2021/12/30 06:02:14;;;;;;;;;;;;;;;14.27;76.98;100916.13;5138796;27;38165;-81
2021/12/30 06:04:41;;;;;;;;;;;;;;;14.31;76.29;100918.56;5139786;27;26753;-80
2021/12/30 06:07:06;;;;;;;;;;;;;;;14.33;76.79;100919.34;5140266;27;27362;-80
2021/12/30 06:09:32;;;;;;;;;;;;;;;14.36;76.83;100908.84;5144413;27;26776;-78
2021/12/30 06:11:57;;;;;;;;;;;;;;;14.37;76.26;100912.31;5145076;27;26900;-78
2021/12/30 06:14:22;;;;;;;;;;;;;;;14.39;76.82;100911.38;5142884;27;36430;-79
2021/12/30 06:16:47;;;;;;;;;;;;;;;14.41;76.65;100914.72;5140733;27;56233;-80
2021/12/30 06:19:12;;;;;;;;;;;;;;;14.44;76.60;100911.16;5145251;27;33777;-78
2021/12/30 06:21:37;;;;;;;;;;;;;;;14.45;76.41;100916.31;5150428;27;57308;-80
2021/12/30 06:24:03;;;;;;;;;;;;;;;14.47;77.00;100906.69;5148054;27;27058;-82
2021/12/30 06:26:28;;;;;;;;;;;;;;;14.48;76.76;100895.38;5141509;27;27218;-81
2021/12/30 06:28:53;;;;;;;;;;;;;;;14.50;76.56;100885.78;5141086;27;54901;-80
2021/12/30 06:31:18;;;;;;;;;;;;;;;14.51;76.22;100890.06;5146169;27;27499;-80
2021/12/30 06:33:44;;;;;;;;;;;;;;;14.54;76.45;100888.28;5147439;27;26967;-80
2021/12/30 06:36:10;;;;;;;;;;;;;;;14.55;76.78;100889.97;5144249;27;26845;-80
2021/12/30 06:38:35;;;;;;;;;;;;;;;14.57;76.66;100894.19;5145422;27;26840;-81
2021/12/30 06:41:00;;;;;;;;;;;;;;;14.57;76.80;100898.53;5143401;27;49088;-80
2021/12/30 06:43:26;;;;;;;;;;;;;;;14.58;76.74;100900.25;5144002;27;26751;-80
2021/12/30 06:45:51;;;;;;;;;;;;;;;14.60;77.06;100903.59;5142908;27;26861;-80
2021/12/30 06:48:16;;;;;;;;;;;;;;;14.63;76.97;100913.88;5143274;27;26930;-80
2021/12/30 06:50:51;;;;;;;;;;;;;;;14.61;77.11;100910.50;5142064;27;26768;-81
2021/12/30 06:53:16;;;;;;;;;;;;;;;14.65;76.95;100912.09;5141495;27;26925;-81
2021/12/30 06:55:43;;;;;;;;;;;;;;;14.65;77.45;100917.28;5145696;27;26988;-80
2021/12/30 06:58:09;;;;;;;;;;;;;;;14.66;76.99;100913.78;5145712;27;26740;-80
2021/12/30 07:00:34;;;;;;;;;;;;;;;14.70;76.96;100915.31;5142707;27;26701;-81
2021/12/30 07:02:59;;;;;;;;;;;;;;;14.71;77.01;100917.03;5141817;27;26913;-82
2021/12/30 07:05:24;;;;;;;;;;;;;;;14.71;77.37;100917.88;5142547;27;56726;-82
2021/12/30 07:07:49;;;;;;;;;;;;;;;14.69;77.23;100916.25;5143285;27;26876;-82
2021/12/30 07:10:14;;;;;;;;;;;;;;;14.70;77.34;100910.13;5142284;27;56812;-82
2021/12/30 07:12:40;;;;;;;;;;;;;;;14.67;77.66;100915.44;5141722;27;54466;-82
2021/12/30 07:15:06;;;;;;;;;;;;;;;14.69;76.94;100911.91;5150450;27;39847;-82
2021/12/30 07:17:32;;;;;;;;;;;;;;;14.70;77.25;100920.53;5151389;27;26524;-82
2021/12/30 07:19:57;;;;;;;;;;;;;;;14.72;77.25;100926.53;5143776;27;26821;-82
2021/12/30 07:22:22;;;;;;;;;;;;;;;14.70;77.23;100915.31;5143218;27;27086;-81
2021/12/30 07:24:48;;;;;;;;;;;;;;;14.70;77.39;100915.31;5143446;27;26951;-80
2021/12/30 07:27:13;;;;;;;;;;;;;;;14.70;77.44;100917.94;5143686;27;26977;-80
2021/12/30 07:29:39;;;;;;;;;;;;;;;14.70;77.72;100926.56;5141032;27;56522;-81
2021/12/30 07:32:04;;;;;;;;;;;;;;;14.73;77.13;100925.63;5141698;27;26912;-80
2021/12/30 07:34:29;;;;;;;;;;;;;;;14.71;77.85;100932.63;5142121;27;26924;-79
2021/12/30 07:36:54;;;;;;;;;;;;;;;14.72;77.79;100935.19;5141692;27;26866;-80
2021/12/30 07:39:19;;;;;;;;;;;;;;;14.72;77.69;100948.19;5139755;27;56305;-79
2021/12/30 07:41:45;;;;;;;;;;;;;;;14.75;77.90;100949.78;5141209;27;54146;-79
2021/12/30 07:44:10;;;;;;;;;;;;;;;14.77;77.26;100951.41;5144088;27;26819;-80
2021/12/30 07:46:35;;;;;;;;;;;;;;;14.78;77.47;100962.66;5141694;27;26764;-80
2021/12/30 07:49:00;;;;;;;;;;;;;;;14.79;77.56;100961.78;5140379;27;57505;-80
2021/12/30 07:51:27;;;;;;;;;;;;;;;14.80;77.45;100958.28;5141222;27;26889;-80
2021/12/30 07:53:52;;;;;;;;;;;;;;;14.82;77.44;100951.25;5141948;27;26729;-80
2021/12/30 07:56:17;;;;;;;;;;;;;;;14.84;77.58;100944.25;5141746;27;26770;-81
2021/12/30 07:58:43;;;;;;;;;;;;;;;14.84;77.22;100949.44;5140868;27;26983;-79
2021/12/30 08:01:08;;;;;;;;;;;;;;;14.85;77.54;100951.13;5140912;27;26929;-79
2021/12/30 08:03:33;;;;;;;;;;;;;;;14.86;77.49;100960.63;5139867;27;27127;-79
2021/12/30 08:05:58;;;;;;;;;;;;;;;14.87;77.42;100954.53;5142739;27;27013;-79
2021/12/30 08:08:23;;;;;;;;;;;;;;;14.89;77.31;100947.47;5143179;27;26899;-79
2021/12/30 08:10:49;;;;;;;;;;;;;;;14.83;77.22;100952.94;5144772;27;48085;-80
2021/12/30 08:13:14;;;;;;;;;;;;;;;14.89;77.21;100957.88;5143103;27;26969;-80
2021/12/30 08:15:39;;;;;;;;;;;;;;;14.90;76.99;100959.59;5141723;27;26883;-79
2021/12/30 08:18:05;;;;;;;;;;;;;;;14.92;77.21;100973.41;5141308;27;27203;-79
2021/12/30 08:20:30;;;;;;;;;;;;;;;14.90;76.88;100981.25;5142632;27;27105;-80
2021/12/30 08:22:56;;;;;;;;;;;;;;;14.93;77.26;100975.91;5141353;27;52031;-79
2021/12/30 08:25:21;;;;;;;;;;;;;;;14.94;76.93;100992.38;5140689;27;26945;-81
2021/12/30 08:27:47;;;;;;;;;;;;;;;14.92;76.95;100978.59;5146172;27;26968;-80
2021/12/30 08:30:13;;;;;;;;;;;;;;;14.94;76.93;100988.03;5142036;27;26638;-81
2021/12/30 08:32:39;;;;;;;;;;;;;;;14.95;76.66;100994.94;5141607;27;26693;-81
2021/12/30 08:35:05;;;;;;;;;;;;;;;14.94;76.86;100992.38;5141629;27;26961;-80
2021/12/30 08:37:31;;;;;;;;;;;;;;;14.96;76.78;100990.53;5141942;27;27062;-78
2021/12/30 08:39:56;;;;;;;;;;;;;;;14.93;76.94;101006.28;5140809;27;26720;-80
2021/12/30 08:42:23;;;;;;;;;;;;;;;14.91;77.09;100997.69;5139921;27;27849;-80
2021/12/30 08:44:49;;;;;;;;;;;;;;;14.90;76.95;101006.41;5140383;27;26967;-80
2021/12/30 08:47:15;;;;;;;;;;;;;;;14.90;76.75;101011.59;5140229;27;26818;-80
2021/12/30 08:49:46;;;;;;;;;;;;;;;14.93;76.97;101006.28;5140215;27;26918;-80
2021/12/30 08:52:11;;;;;;;;;;;;;;;14.94;77.01;100997.56;5139557;27;26871;-80
2021/12/30 08:54:37;;;;;;;;;;;;;;;14.98;76.97;101014.75;5142589;27;27060;-80
2021/12/30 08:57:04;;;;;;;;;;;;;;;14.99;76.68;101006.91;5143042;27;39982;-81
2021/12/30 08:59:29;;;;;;;;;;;;;;;15.02;77.01;101008.53;5143318;27;26916;-79
2021/12/30 09:01:55;;;;;;;;;;;;;;;15.05;76.31;101011.00;5143690;27;26791;-79
2021/12/30 09:04:20;;;;;;;;;;;;;;;15.05;76.82;101000.59;5141561;27;26786;-80
2021/12/30 09:06:45;;;;;;;;;;;;;;;15.08;76.68;100990.06;5139217;27;56676;-80
2021/12/30 09:09:10;;;;;;;;;;;;;;;15.12;76.83;100991.63;5140566;27;55250;-80
2021/12/30 09:11:36;;;;;;;;;;;;;;;15.14;76.81;101000.22;5137563;27;56562;-79
2021/12/30 09:14:01;;;;;;;;;;;;;;;15.16;76.88;100995.81;5138278;27;53207;-78
2021/12/30 09:16:26;;;;;;;;;;;;;;;15.19;76.79;101003.47;5140200;27;56672;-79
2021/12/30 09:18:51;;;;;;;;;;;;;;;15.23;76.55;100999.84;5142263;27;38657;-79
2021/12/30 09:21:16;;;;;;;;;;;;;;;15.24;76.84;101001.53;5145851;27;28996;-79
2021/12/30 09:23:41;;;;;;;;;;;;;;;15.27;76.74;101001.41;5143825;27;55162;-78
2021/12/30 09:26:07;;;;;;;;;;;;;;;15.31;76.80;101005.59;5141249;27;34846;-78
2021/12/30 09:28:32;;;;;;;;;;;;;;;15.35;76.85;101014.97;5142332;27;26796;-78
2021/12/30 09:30:57;;;;;;;;;;;;;;;15.41;76.74;101019.91;5144238;27;26814;-79
2021/12/30 09:33:23;;;;;;;;;;;;;;;15.47;76.91;101014.47;5142411;27;39258;-79
2021/12/30 09:35:48;;;;;;;;;;;;;;;15.52;76.31;101011.72;5143318;27;27171;-79
2021/12/30 09:38:14;;;;;;;;;;;;;;;15.55;76.31;101018.53;5143226;27;27129;-78
2021/12/30 09:40:39;;;;;;;;;;;;;;;15.59;75.95;101022.69;5145473;27;26865;-78
2021/12/30 09:43:05;;;;;;;;;;;;;;;15.64;76.18;101010.31;5144508;27;27053;-79
2021/12/30 09:45:33;;;;;;;;;;;;;;;15.67;76.05;101026.66;5144580;27;26946;-79
2021/12/30 09:48:00;;;;;;;;;;;;;;;15.71;75.91;101032.59;5143996;27;26802;-79
2021/12/30 09:50:27;;;;;;;;;;;;;;;15.76;75.53;101025.44;5143957;27;26812;-79
2021/12/30 09:52:53;;;;;;;;;;;;;;;15.80;75.39;101027.84;5145845;27;26881;-79
2021/12/30 09:55:18;;;;;;;;;;;;;;;15.82;75.30;101040.81;5144846;27;26777;-79
2021/12/30 09:57:44;;;;;;;;;;;;;;;15.86;75.31;101052.75;5144159;27;27229;-79
2021/12/30 10:00:11;;;;;;;;;;;;;;;15.87;75.23;101049.25;5146439;27;26970;-79
2021/12/30 10:02:36;;;;;;;;;;;;;;;15.89;74.85;101058.72;5143473;27;27007;-79
2021/12/30 10:05:06;;;;;;;;;;;;;;;15.94;74.77;101050.69;5143945;27;26893;-79
2021/12/30 10:07:31;;;;;;;;;;;;;;;15.95;74.63;101044.56;5144086;27;26931;-79
2021/12/30 10:10:01;;;;;;;;;;;;;;;15.92;74.66;101026.47;5142186;27;26849;-80
2021/12/30 10:12:39;;;;;;;;;;;;;;;16.03;73.77;101055.50;5140950;27;26803;-80
2021/12/30 10:15:06;;;;;;;;;;;;;;;16.06;73.99;101052.75;5140827;27;26971;-80
2021/12/30 10:17:31;;;;;;;;;;;;;;;16.06;73.83;101052.75;5141441;27;26918;-80
2021/12/30 10:20:14;;;;;;;;;;;;;;;16.07;73.69;101057.06;5141652;27;26886;-80
2021/12/30 10:22:39;;;;;;;;;;;;;;;16.11;73.95;101048.22;5141130;27;26816;-80
2021/12/30 10:25:05;;;;;;;;;;;;;;;16.12;73.94;101055.09;5142340;27;54083;-79
2021/12/30 10:27:32;;;;;;;;;;;;;;;16.17;73.94;101055.75;5145235;27;26850;-79
2021/12/30 10:29:57;;;;;;;;;;;;;;;16.17;73.68;101053.13;5143574;27;27019;-80
2021/12/30 10:32:24;;;;;;;;;;;;;;;16.19;73.88;101061.75;5141165;27;55134;-80
2021/12/30 10:35:02;;;;;;;;;;;;;;;16.26;73.89;101063.16;5141200;27;27484;-80
2021/12/30 10:37:27;;;;;;;;;;;;;;;16.31;73.68;101060.34;5141681;27;26864;-80
2021/12/30 10:39:52;;;;;;;;;;;;;;;16.33;72.70;101064.59;5141402;27;26988;-80
2021/12/30 10:42:21;;;;;;;;;;;;;;;16.40;73.83;101072.97;5140681;27;26905;-80
2021/12/30 10:44:54;;;;;;;;;;;;;;;16.42;73.39;101064.16;5140614;27;27105;-80
2021/12/30 10:47:20;;;;;;;;;;;;;;;16.44;72.93;101078.00;5140402;27;26769;-80
2021/12/30 10:49:55;;;;;;;;;;;;;;;16.47;72.75;101065.72;5142886;27;27943;-79
2021/12/30 10:52:20;;;;;;;;;;;;;;;16.48;72.83;101083.06;5144413;27;26802;-77
2021/12/30 10:54:45;;;;;;;;;;;;;;;16.52;72.59;101084.63;5142344;27;47330;-80
2021/12/30 10:57:11;;;;;;;;;;;;;;;16.54;72.24;101074.94;5141216;27;54303;-79
2021/12/30 10:59:41;;;;;;;;;;;;;;;16.55;72.19;101084.47;5140332;27;35547;-80
2021/12/30 11:02:08;;;;;;;;;;;;;;;16.57;71.94;101103.56;5142292;27;26997;-79
2021/12/30 11:04:36;;;;;;;;;;;;;;;16.56;71.75;101101.81;5143188;27;27181;-79
2021/12/30 11:07:01;;;;;;;;;;;;;;;16.56;71.98;101096.59;5141199;27;26973;-79
2021/12/30 11:09:26;;;;;;;;;;;;;;;16.58;72.30;101094.78;5140946;27;26878;-80
2021/12/30 11:11:53;;;;;;;;;;;;;;;16.59;71.96;101093.88;5141269;27;27019;-80
2021/12/30 11:14:21;;;;;;;;;;;;;;;16.60;71.64;101088.63;5141990;27;27010;-79
2021/12/30 11:16:58;;;;;;;;;;;;;;;16.61;71.09;101074.63;5144721;27;26938;-79
2021/12/30 11:19:24;;;;;;;;;;;;;;;16.62;71.94;101078.09;5142605;27;26773;-80
2021/12/30 11:21:51;;;;;;;;;;;;;;;16.66;71.92;101083.09;5141732;27;26736;-80
2021/12/30 11:24:17;;;;;;;;;;;;;;;16.66;71.31;101082.25;5143418;27;27764;-78
2021/12/30 11:26:42;;;;;;;;;;;;;;;16.69;70.95;101082.13;5145764;27;26868;-79
2021/12/30 11:29:07;;;;;;;;;;;;;;;16.71;70.60;101075.09;5144892;27;57063;-79
2021/12/30 11:31:33;;;;;;;;;;;;;;;16.74;70.70;101081.00;5145470;27;27032;-79
2021/12/30 11:33:59;;;;;;;;;;;;;;;16.74;70.51;101086.22;5144439;27;27674;-79
2021/12/30 11:36:24;;;;;;;;;;;;;;;16.77;70.50;101093.03;5139033;27;26941;-79
2021/12/30 11:38:50;;;;;;;;;;;;;;;16.79;71.00;101089.47;5138762;27;27085;-79
2021/12/30 11:41:17;;;;;;;;;;;;;;;16.78;70.04;101094.75;5141078;27;27056;-80
2021/12/30 11:43:43;;;;;;;;;;;;;;;16.77;70.49;101101.72;5138623;27;27659;-80
2021/12/30 11:46:28;;;;;;;;;;;;;;;16.78;70.44;101102.56;5139697;27;27043;-80
2021/12/30 11:48:54;;;;;;;;;;;;;;;16.73;69.77;101083.66;5138863;27;27575;-79
2021/12/30 11:51:22;;;;;;;;;;;;;;;16.70;69.34;101083.81;5144375;27;26886;-78
2021/12/30 11:53:48;;;;;;;;;;;;;;;16.71;70.22;101082.91;5144365;27;27744;-78
2021/12/30 11:56:17;;;;;;;;;;;;;;;16.72;69.58;101074.16;5143784;27;26676;-78
2021/12/30 11:58:45;;;;;;;;;;;;;;;16.74;69.65;101085.38;5144442;27;27220;-80
2021/12/30 12:01:10;;;;;;;;;;;;;;;16.74;69.59;101072.31;5139258;27;26679;-80
2021/12/30 12:03:39;;;;;;;;;;;;;;;16.75;69.54;101084.47;5137943;27;55269;-80
2021/12/30 12:06:05;;;;;;;;;;;;;;;16.76;69.41;101093.94;5138990;27;26874;-79
2021/12/30 12:08:41;;;;;;;;;;;;;;;16.76;69.98;101094.81;5139039;27;27078;-79
2021/12/30 12:11:14;;;;;;;;;;;;;;;16.76;69.76;101101.78;5139510;27;26965;-80
2021/12/30 12:13:40;;;;;;;;;;;;;;;16.74;69.95;101101.03;5139768;27;28132;-79
2021/12/30 12:16:06;;;;;;;;;;;;;;;16.75;69.73;101102.72;5139272;27;26744;-79
2021/12/30 12:18:31;;;;;;;;;;;;;;;16.74;69.66;101103.63;5139185;27;27764;-79
2021/12/30 12:20:58;;;;;;;;;;;;;;;16.74;69.53;101101.03;5139926;27;26706;-79
2021/12/30 12:23:31;;;;;;;;;;;;;;;16.72;69.54;101105.47;5138828;27;26922;-80
2021/12/30 12:26:19;;;;;;;;;;;;;;;16.69;69.51;101095.16;5139308;27;26733;-80
2021/12/30 12:28:44;;;;;;;;;;;;;;;16.66;69.37;101097.91;5120183;27;27653;-80